Time;durP1;ratioP1;P1;durP2;ratioP2;P2;SDS_P1;SDS_P2;PMS_P1;PMS_P2;Temp;Humidity;BMP_temperature;BMP_pressure;BME280_temperature;BME280_humidity;BME280_pressure;Samples;Min_cycle;Max_cycle;Signal;HPM_P1;HPM_P2
2022/05/02 00:00:51;;;;;;;13.73;12.23;;;;;;;;;;5083074;28;20201;-64
2022/05/02 00:03:19;;;;;;;14.63;13.07;;;;;;;;;;5060526;28;20204;-65
2022/05/02 00:05:47;;;;;;;14.47;12.97;;;;;;;;;;5061159;28;20633;-63
2022/05/02 00:08:14;;;;;;;16.80;13.27;;;;;;;;;;5075886;28;20225;-65
2022/05/02 00:10:41;;;;;;;13.87;12.43;;;;;;;;;;5052691;28;20254;-64
2022/05/02 00:13:09;;;;;;;13.43;12.03;;;;;;;;;;5058409;28;20348;-66
2022/05/02 00:15:38;;;;;;;13.63;12.17;;;;;;;;;;5058072;28;20300;-64
2022/05/02 00:18:05;;;;;;;12.57;11.23;;;;;;;;;;5052399;28;20208;-64
2022/05/02 00:20:34;;;;;;;15.53;12.33;;;;;;;;;;5058005;28;20210;-65
2022/05/02 00:23:02;;;;;;;18.57;11.93;;;;;;;;;;5057195;28;20212;-63
2022/05/02 00:25:30;;;;;;;16.50;12.67;;;;;;;;;;5057692;28;20209;-65
2022/05/02 00:27:58;;;;;;;14.97;12.93;;;;;;;;;;5057329;28;20217;-65
2022/05/02 00:30:26;;;;;;;16.13;13.83;;;;;;;;;;5063799;28;20205;-65
2022/05/02 00:32:54;;;;;;;17.40;13.83;;;;;;;;;;5070236;28;20663;-65
2022/05/02 00:35:21;;;;;;;15.93;13.90;;;;;;;;;;5054291;28;20205;-63
2022/05/02 00:37:48;;;;;;;18.33;15.00;;;;;;;;;;5057434;28;20216;-64
2022/05/02 00:40:17;;;;;;;16.90;14.67;;;;;;;;;;5058942;28;20604;-66
2022/05/02 00:42:45;;;;;;;17.27;14.80;;;;;;;;;;5061975;28;20258;-65
2022/05/02 00:45:14;;;;;;;17.57;15.73;;;;;;;;;;5057996;28;20213;-68
2022/05/02 00:47:41;;;;;;;18.10;15.87;;;;;;;;;;5052163;28;20229;-67
2022/05/02 00:50:10;;;;;;;20.00;17.20;;;;;;;;;;5065448;28;20209;-66
2022/05/02 00:52:37;;;;;;;21.40;17.33;;;;;;;;;;5052752;28;20616;-65
2022/05/02 00:55:05;;;;;;;20.57;17.40;;;;;;;;;;5053266;28;20298;-67
2022/05/02 00:57:33;;;;;;;20.37;17.07;;;;;;;;;;5048014;28;20213;-66
2022/05/02 01:00:01;;;;;;;20.03;17.07;;;;;;;;;;5055459;28;20209;-65
2022/05/02 01:02:29;;;;;;;18.67;16.13;;;;;;;;;;5056013;28;20204;-62
2022/05/02 01:04:56;;;;;;;17.83;15.93;;;;;;;;;;5059059;28;20200;-65
2022/05/02 01:07:24;;;;;;;17.87;16.07;;;;;;;;;;5063549;28;20331;-66
2022/05/02 01:09:51;;;;;;;18.47;15.90;;;;;;;;;;5053016;28;20608;-65
2022/05/02 01:12:21;;;;;;;17.27;15.50;;;;;;;;;;5051563;28;20205;-63
2022/05/02 01:14:53;;;;;;;19.57;15.60;;;;;;;;;;5037239;28;20205;-66
2022/05/02 01:17:20;;;;;;;17.27;14.63;;;;;;;;;;5070263;28;20330;-66
2022/05/02 01:19:50;;;;;;;15.90;14.20;;;;;;;;;;5053813;28;20250;-65
2022/05/02 01:22:17;;;;;;;17.97;15.20;;;;;;;;;;5066746;28;20213;-63
2022/05/02 01:24:46;;;;;;;19.40;16.47;;;;;;;;;;5070623;28;20209;-66
2022/05/02 01:27:14;;;;;;;18.77;15.73;;;;;;;;;;5069240;28;20232;-65
2022/05/02 01:29:42;;;;;;;20.57;15.77;;;;;;;;;;5073098;28;20200;-65
2022/05/02 01:32:11;;;;;;;17.87;15.47;;;;;;;;;;5054823;28;20197;-63
2022/05/02 01:34:42;;;;;;;19.47;15.50;;;;;;;;;;5056231;28;20706;-65
2022/05/02 01:37:11;;;;;;;17.63;15.37;;;;;;;;;;5058941;28;20232;-64
2022/05/02 01:39:42;;;;;;;20.93;17.60;;;;;;;;;;5056159;28;20209;-65
2022/05/02 01:42:11;;;;;;;22.00;18.43;;;;;;;;;;5060862;28;20666;-66
2022/05/02 01:44:39;;;;;;;27.00;19.53;;;;;;;;;;5054206;28;20197;-65
2022/05/02 01:47:10;;;;;;;24.10;19.27;;;;;;;;;;5055598;28;20812;-65
2022/05/02 01:49:37;;;;;;;26.30;20.00;;;;;;;;;;5057137;28;20213;-67
2022/05/02 01:52:05;;;;;;;23.47;19.57;;;;;;;;;;5055075;28;20300;-67
2022/05/02 01:54:33;;;;;;;22.17;18.73;;;;;;;;;;5060460;28;21024;-64
2022/05/02 01:57:00;;;;;;;20.33;16.80;;;;;;;;;;5058411;28;20278;-65
2022/05/02 01:59:28;;;;;;;18.13;15.63;;;;;;;;;;5057454;28;20201;-64
2022/05/02 02:01:55;;;;;;;18.40;15.67;;;;;;;;;;5059106;28;20204;-67
2022/05/02 02:07:09;;;;;;;19.43;16.20;;;;;;;;;;5074568;28;20236;-65
2022/05/02 02:09:37;;;;;;;19.50;16.90;;;;;;;;;;5060808;28;20904;-66
2022/05/02 02:12:04;;;;;;;22.20;17.90;;;;;;;;;;5054796;28;20193;-66
2022/05/02 02:14:31;;;;;;;20.17;17.33;;;;;;;;;;5065786;28;20258;-65
2022/05/02 02:16:59;;;;;;;22.03;17.63;;;;;;;;;;5077934;28;20289;-68
2022/05/02 02:19:26;;;;;;;20.27;15.50;;;;;;;;;;5083324;28;20313;-67
2022/05/02 02:22:16;;;;;;;16.57;14.80;;;;;;;;;;5063785;28;20552;-65
2022/05/02 02:24:41;;;;;;;15.83;14.03;;;;;;;;;;5077939;28;21151;-65
2022/05/02 02:27:08;;;;;;;18.27;15.50;;;;;;;;;;5054754;28;20236;-65
2022/05/02 02:29:35;;;;;;;19.77;15.70;;;;;;;;;;5065374;28;20197;-64
2022/05/02 02:32:03;;;;;;;55.23;35.63;;;;;;;;;;5056087;28;20336;-64
2022/05/02 02:34:31;;;;;;;77.47;48.07;;;;;;;;;;5063247;28;20209;-63
2022/05/02 02:36:58;;;;;;;45.03;30.67;;;;;;;;;;5062551;28;20791;-64
2022/05/02 02:39:25;;;;;;;34.83;24.90;;;;;;;;;;5061606;28;20625;-65
2022/05/02 02:41:54;;;;;;;36.50;27.07;;;;;;;;;;5066737;28;20212;-65
2022/05/02 02:44:21;;;;;;;37.03;26.80;;;;;;;;;;5064214;28;20202;-64
2022/05/02 02:46:48;;;;;;;31.83;24.63;;;;;;;;;;5062158;28;20229;-67
2022/05/02 02:49:16;;;;;;;26.57;20.33;;;;;;;;;;5073507;28;20698;-65
2022/05/02 02:51:43;;;;;;;23.97;18.77;;;;;;;;;;5059358;28;20204;-65
2022/05/02 02:54:10;;;;;;;24.63;18.97;;;;;;;;;;5061918;28;20663;-65
2022/05/02 02:56:38;;;;;;;25.20;19.43;;;;;;;;;;5063701;28;20531;-68
2022/05/02 02:59:05;;;;;;;23.90;18.87;;;;;;;;;;5067406;28;20213;-68
2022/05/02 03:01:36;;;;;;;21.13;17.60;;;;;;;;;;5075149;28;20200;-64
2022/05/02 03:06:01;;;;;;;24.07;18.20;;;;;;;;;;5062215;28;20209;-64
2022/05/02 03:06:51;;;;;;;21.03;17.97;;;;;;;;;;5079958;28;20229;-67
2022/05/02 03:09:19;;;;;;;22.07;18.20;;;;;;;;;;5069569;28;20709;-64
2022/05/02 03:11:46;;;;;;;20.83;17.37;;;;;;;;;;5063967;28;20197;-65
2022/05/02 03:14:13;;;;;;;23.57;17.90;;;;;;;;;;5059478;28;20196;-65
2022/05/02 03:16:41;;;;;;;22.67;17.67;;;;;;;;;;5057328;28;20286;-64
2022/05/02 03:19:09;;;;;;;24.23;18.60;;;;;;;;;;5057967;28;20221;-64
2022/05/02 03:21:36;;;;;;;22.23;17.93;;;;;;;;;;5056956;28;20204;-64
2022/05/02 03:24:04;;;;;;;22.17;18.23;;;;;;;;;;5062747;28;20209;-64
2022/05/02 03:26:31;;;;;;;21.67;18.27;;;;;;;;;;5063053;28;20718;-64
2022/05/02 03:28:58;;;;;;;23.93;19.07;;;;;;;;;;5070295;28;20640;-65
2022/05/02 03:31:26;;;;;;;23.43;18.80;;;;;;;;;;5055995;28;20271;-66
2022/05/02 03:33:53;;;;;;;22.97;20.40;;;;;;;;;;5056539;28;20229;-65
2022/05/02 03:36:21;;;;;;;22.30;17.97;;;;;;;;;;5058912;28;20227;-64
2022/05/02 03:38:48;;;;;;;23.33;18.10;;;;;;;;;;5067995;28;20205;-64
2022/05/02 03:41:16;;;;;;;23.10;17.37;;;;;;;;;;5062865;28;20225;-64
2022/05/02 03:43:43;;;;;;;20.37;17.67;;;;;;;;;;5083878;28;20261;-64
2022/05/02 03:46:10;;;;;;;19.83;16.90;;;;;;;;;;5077619;28;20228;-64
2022/05/02 03:48:38;;;;;;;23.80;18.23;;;;;;;;;;5079068;28;20235;-65
2022/05/02 03:51:05;;;;;;;20.47;17.67;;;;;;;;;;5057854;28;20209;-63
2022/05/02 03:53:32;;;;;;;21.87;17.93;;;;;;;;;;5062281;28;20205;-63
2022/05/02 03:56:00;;;;;;;22.30;18.27;;;;;;;;;;5060360;28;20266;-65
2022/05/02 03:58:27;;;;;;;21.27;17.80;;;;;;;;;;5075722;28;20679;-64
2022/05/02 04:00:55;;;;;;;22.03;17.83;;;;;;;;;;5055966;28;20273;-64
2022/05/02 04:03:22;;;;;;;22.23;18.67;;;;;;;;;;5076066;28;20250;-64
2022/05/02 04:05:50;;;;;;;26.83;18.93;;;;;;;;;;5059954;28;20612;-64
2022/05/02 04:08:17;;;;;;;23.77;18.77;;;;;;;;;;5075792;28;20772;-64
2022/05/02 04:10:45;;;;;;;25.90;20.00;;;;;;;;;;5064673;28;20209;-65
2022/05/02 04:13:12;;;;;;;31.37;22.50;;;;;;;;;;5058345;28;21394;-64
2022/05/02 04:15:40;;;;;;;41.97;28.40;;;;;;;;;;5063570;28;20206;-65
2022/05/02 04:18:08;;;;;;;24.07;19.53;;;;;;;;;;5068293;28;20202;-64
2022/05/02 04:20:35;;;;;;;23.23;18.43;;;;;;;;;;5073200;28;20205;-68
2022/05/02 04:23:02;;;;;;;25.00;18.87;;;;;;;;;;5050933;28;20209;-64
2022/05/02 04:25:30;;;;;;;21.37;17.57;;;;;;;;;;5051283;28;20204;-64
2022/05/02 04:27:57;;;;;;;21.13;17.43;;;;;;;;;;5051277;28;20228;-65
2022/05/02 04:30:25;;;;;;;19.27;16.37;;;;;;;;;;5056622;28;20197;-65
2022/05/02 04:32:53;;;;;;;21.70;16.30;;;;;;;;;;5059067;28;20197;-64
2022/05/02 04:35:20;;;;;;;18.77;15.57;;;;;;;;;;5077046;28;20261;-62
2022/05/02 04:37:48;;;;;;;19.63;16.43;;;;;;;;;;5062798;28;20266;-65
2022/05/02 04:40:15;;;;;;;17.27;15.20;;;;;;;;;;5056123;28;20204;-64
2022/05/02 04:42:43;;;;;;;20.57;16.50;;;;;;;;;;5052011;28;20204;-64
2022/05/02 04:45:10;;;;;;;20.37;15.83;;;;;;;;;;5051589;28;20197;-65
2022/05/02 04:47:38;;;;;;;19.67;15.70;;;;;;;;;;5041157;28;20220;-65
2022/05/02 04:50:05;;;;;;;22.70;17.70;;;;;;;;;;5066235;28;20228;-64
2022/05/02 04:52:33;;;;;;;30.70;21.27;;;;;;;;;;5051525;28;20291;-65
2022/05/02 04:55:00;;;;;;;26.83;20.13;;;;;;;;;;5055176;28;21223;-64
2022/05/02 04:57:27;;;;;;;22.10;17.40;;;;;;;;;;5056693;28;20221;-64
2022/05/02 04:59:55;;;;;;;27.47;20.30;;;;;;;;;;5057805;28;20238;-64
2022/05/02 05:02:22;;;;;;;28.60;20.40;;;;;;;;;;5065419;28;20330;-66
2022/05/02 05:04:50;;;;;;;24.50;18.83;;;;;;;;;;5077425;28;20233;-63
2022/05/02 05:07:17;;;;;;;22.50;18.23;;;;;;;;;;5057500;28;20237;-65
2022/05/02 05:09:45;;;;;;;21.43;17.70;;;;;;;;;;5061767;28;20221;-65
2022/05/02 05:12:20;;;;;;;22.40;18.37;;;;;;;;;;5053201;28;20678;-65
2022/05/02 05:18:10;;;;;;;20.93;17.83;;;;;;;;;;5077151;28;20220;-64
2022/05/02 05:20:44;;;;;;;20.63;17.13;;;;;;;;;;5061832;28;20208;-64
2022/05/02 05:23:21;;;;;;;22.77;17.80;;;;;;;;;;5059876;28;20610;-65
2022/05/02 05:25:57;;;;;;;21.93;17.87;;;;;;;;;;5058913;28;20216;-65
2022/05/02 05:28:31;;;;;;;21.83;17.87;;;;;;;;;;5056518;28;20899;-64
2022/05/02 05:31:17;;;;;;;19.17;16.37;;;;;;;;;;5080869;28;20728;-64
2022/05/02 05:33:47;;;;;;;17.90;13.60;;;;;;;;;;5068019;28;20733;-65
2022/05/02 05:36:25;;;;;;;14.17;12.67;;;;;;;;;;5060855;28;20216;-65
2022/05/02 05:39:04;;;;;;;13.43;12.03;;;;;;;;;;5062846;28;20292;-65
2022/05/02 05:41:41;;;;;;;12.77;11.43;;;;;;;;;;5062750;28;20201;-65
2022/05/02 05:44:11;;;;;;;13.30;11.50;;;;;;;;;;5076189;28;20204;-64
2022/05/02 05:46:58;;;;;;;13.43;11.53;;;;;;;;;;5064446;28;20231;-65
2022/05/02 05:49:25;;;;;;;13.57;12.20;;;;;;;;;;5059632;28;20581;-65
2022/05/02 05:51:52;;;;;;;13.38;11.88;;;;;;;;;;5061768;28;20626;-65
2022/05/02 05:54:20;;;;;;;15.43;13.82;;;;;;;;;;5060016;28;20197;-65
2022/05/02 05:56:54;;;;;;;12.68;11.32;;;;;;;;;;5058788;28;20228;-65
2022/05/02 05:59:36;;;;;;;13.02;11.63;;;;;;;;;;5063395;28;20201;-65
2022/05/02 06:02:20;;;;;;;12.70;11.50;;;;;;;;;;5061683;28;20577;-65
2022/05/02 06:04:49;;;;;;;13.93;12.57;;;;;;;;;;5064049;28;20641;-65
2022/05/02 06:07:18;;;;;;;14.47;13.07;;;;;;;;;;5062469;28;20268;-65
2022/05/02 06:09:46;;;;;;;14.93;13.43;;;;;;;;;;5061100;28;20311;-65
2022/05/02 06:12:14;;;;;;;15.03;13.53;;;;;;;;;;5063945;28;20640;-65
2022/05/02 06:20:23;;;;;;;17.23;14.50;;;;;;;;;;5076759;28;20228;-65
2022/05/02 06:22:51;;;;;;;16.20;14.60;;;;;;;;;;5058191;28;20205;-65
2022/05/02 06:25:19;;;;;;;16.37;14.67;;;;;;;;;;5063201;28;20248;-65
2022/05/02 06:27:48;;;;;;;18.47;16.40;;;;;;;;;;5063940;28;20738;-64
2022/05/02 06:30:15;;;;;;;20.77;17.27;;;;;;;;;;5067290;28;20250;-64
2022/05/02 06:32:47;;;;;;;20.13;17.93;;;;;;;;;;5070764;28;20243;-65
2022/05/02 06:35:14;;;;;;;19.50;17.30;;;;;;;;;;5064167;28;20247;-65
2022/05/02 06:37:45;;;;;;;18.83;16.93;;;;;;;;;;5064373;28;20224;-63
2022/05/02 06:40:24;;;;;;;18.93;16.93;;;;;;;;;;5063322;28;20213;-65
2022/05/02 06:43:13;;;;;;;20.03;17.00;;;;;;;;;;5067670;28;20906;-65
2022/05/02 06:45:50;;;;;;;19.97;17.37;;;;;;;;;;5062211;28;20225;-65
2022/05/02 06:48:28;;;;;;;18.43;16.53;;;;;;;;;;5058640;28;20204;-65
2022/05/02 06:51:06;;;;;;;18.53;16.57;;;;;;;;;;5064292;28;20620;-64
2022/05/02 06:53:33;;;;;;;20.13;16.83;;;;;;;;;;5073345;28;20569;-65
2022/05/02 06:56:01;;;;;;;20.80;17.50;;;;;;;;;;5067319;28;20654;-65
2022/05/02 06:58:40;;;;;;;21.87;17.60;;;;;;;;;;5067180;28;20671;-63
2022/05/02 07:01:10;;;;;;;23.87;18.77;;;;;;;;;;5067639;28;20708;-65
2022/05/02 07:03:53;;;;;;;20.40;17.70;;;;;;;;;;5064637;28;20201;-64
2022/05/02 07:06:39;;;;;;;24.37;19.13;;;;;;;;;;5079860;28;21032;-65
2022/05/02 07:09:08;;;;;;;22.07;17.73;;;;;;;;;;5056016;28;20243;-65
2022/05/02 07:11:51;;;;;;;18.33;16.43;;;;;;;;;;5061009;28;20210;-65
2022/05/02 07:14:39;;;;;;;17.50;14.40;;;;;;;;;;5044616;28;20205;-66
2022/05/02 07:17:11;;;;;;;17.57;15.47;;;;;;;;;;5007413;28;20225;-65
2022/05/02 07:20:02;;;;;;;17.83;15.17;;;;;;;;;;5060311;28;20294;-64
2022/05/02 07:22:33;;;;;;;16.00;14.20;;;;;;;;;;5045476;28;20209;-65
2022/05/02 07:25:09;;;;;;;17.70;14.20;;;;;;;;;;5053632;28;20208;-65
2022/05/02 07:27:40;;;;;;;16.10;14.13;;;;;;;;;;5047580;28;20228;-65
2022/05/02 07:30:07;;;;;;;16.33;14.23;;;;;;;;;;5046846;28;20224;-65
2022/05/02 07:32:35;;;;;;;14.87;13.37;;;;;;;;;;5061536;28;20246;-65
2022/05/02 07:35:03;;;;;;;15.23;13.60;;;;;;;;;;5051419;28;20215;-64
2022/05/02 07:37:32;;;;;;;16.37;14.70;;;;;;;;;;5049233;28;20213;-65
2022/05/02 07:40:00;;;;;;;14.97;12.93;;;;;;;;;;5056139;28;20209;-65
2022/05/02 07:42:36;;;;;;;15.07;13.47;;;;;;;;;;5068634;28;20292;-65
2022/05/02 07:45:07;;;;;;;16.50;14.80;;;;;;;;;;5062345;28;20624;-65
2022/05/02 07:47:36;;;;;;;15.27;13.10;;;;;;;;;;5052238;28;20221;-65
2022/05/02 07:50:05;;;;;;;15.17;13.57;;;;;;;;;;5054176;28;20233;-64
2022/05/02 07:52:35;;;;;;;15.27;13.27;;;;;;;;;;5053329;28;20213;-65
2022/05/02 07:55:03;;;;;;;14.80;12.67;;;;;;;;;;5047588;28;20718;-65
2022/05/02 07:57:37;;;;;;;15.63;13.33;;;;;;;;;;5066009;28;20274;-65
2022/05/02 08:00:05;;;;;;;15.27;13.67;;;;;;;;;;5044527;28;20658;-65
2022/05/02 08:02:32;;;;;;;14.03;12.67;;;;;;;;;;5051406;28;20626;-64
2022/05/02 08:05:00;;;;;;;13.40;12.00;;;;;;;;;;5047362;28;20219;-64
2022/05/02 08:07:32;;;;;;;14.20;12.70;;;;;;;;;;5059067;28;21268;-64
2022/05/02 08:09:59;;;;;;;12.57;11.27;;;;;;;;;;5062704;28;20240;-63
2022/05/02 08:12:34;;;;;;;12.47;11.17;;;;;;;;;;5094829;28;20205;-64
2022/05/02 08:15:11;;;;;;;12.70;11.40;;;;;;;;;;5091387;28;20200;-65
2022/05/02 08:17:45;;;;;;;13.17;11.77;;;;;;;;;;5068782;28;20224;-65
2022/05/02 08:20:31;;;;;;;12.70;11.47;;;;;;;;;;5086932;28;20620;-65
2022/05/02 08:29:29;;;;;;;12.07;10.97;;;;;;;;;;5062017;28;20220;-64
2022/05/02 08:32:04;;;;;;;11.83;10.63;;;;;;;;;;5083596;28;20651;-64
2022/05/02 08:34:37;;;;;;;11.90;10.70;;;;;;;;;;5070812;28;20212;-65
2022/05/02 08:37:18;;;;;;;11.43;10.27;;;;;;;;;;5066627;28;20632;-65
2022/05/02 08:40:05;;;;;;;12.17;10.97;;;;;;;;;;5067819;28;20205;-65
2022/05/02 08:42:55;;;;;;;10.53;8.53;;;;;;;;;;5066692;28;20304;-65
2022/05/02 08:45:49;;;;;;;10.20;9.13;;;;;;;;;;5068534;28;20211;-64
2022/05/02 08:48:22;;;;;;;10.23;9.23;;;;;;;;;;5061712;28;20211;-65
2022/05/02 08:51:08;;;;;;;10.83;9.17;;;;;;;;;;5071635;28;20236;-66
2022/05/02 08:53:48;;;;;;;9.20;8.30;;;;;;;;;;5067743;28;20231;-64
2022/05/02 08:56:21;;;;;;;10.80;9.80;;;;;;;;;;5059592;28;20221;-64
2022/05/02 08:59:03;;;;;;;10.77;9.70;;;;;;;;;;5067157;28;20228;-64
2022/05/02 09:01:33;;;;;;;10.43;9.43;;;;;;;;;;5082792;28;20201;-66
2022/05/02 09:04:07;;;;;;;8.20;7.40;;;;;;;;;;5063720;28;20594;-65
2022/05/02 09:06:34;;;;;;;8.70;7.80;;;;;;;;;;5054816;28;20225;-65
2022/05/02 09:09:11;;;;;;;9.30;8.40;;;;;;;;;;5061393;28;20341;-64
2022/05/02 09:11:58;;;;;;;9.10;8.30;;;;;;;;;;5056970;28;20213;-65
2022/05/02 09:14:34;;;;;;;10.53;8.43;;;;;;;;;;5064600;28;20362;-64
2022/05/02 09:17:08;;;;;;;8.13;7.33;;;;;;;;;;5057401;28;20233;-64
2022/05/02 09:19:35;;;;;;;9.60;8.03;;;;;;;;;;5059265;28;20687;-64
2022/05/02 09:22:02;;;;;;;8.90;8.03;;;;;;;;;;5052888;28;20205;-65
2022/05/02 09:24:39;;;;;;;8.67;7.83;;;;;;;;;;5065190;28;20250;-64
2022/05/02 09:27:13;;;;;;;8.47;7.67;;;;;;;;;;5056411;28;20275;-65
2022/05/02 09:29:50;;;;;;;9.27;8.07;;;;;;;;;;5059010;28;20250;-64
2022/05/02 09:32:37;;;;;;;9.00;8.20;;;;;;;;;;5076865;28;20257;-64
2022/05/02 09:35:05;;;;;;;9.73;8.80;;;;;;;;;;5076005;28;20213;-64
2022/05/02 09:37:39;;;;;;;8.07;7.32;;;;;;;;;;5056968;28;20224;-63
2022/05/02 09:40:09;;;;;;;7.85;7.05;;;;;;;;;;5074244;28;20208;-63
2022/05/02 09:42:47;;;;;;;8.30;7.50;;;;;;;;;;5056128;28;20628;-65
2022/05/02 09:51:15;;;;;;;8.73;7.70;;;;;;;;;;5079209;28;20231;-66
2022/05/02 09:54:02;;;;;;;7.85;6.88;;;;;;;;;;5061953;28;20626;-64
2022/05/02 09:56:40;;;;;;;8.07;7.30;;;;;;;;;;5064043;28;20804;-65
2022/05/02 09:59:08;;;;;;;10.43;8.80;;;;;;;;;;5060831;28;20542;-65
2022/05/02 10:01:42;;;;;;;8.95;8.13;;;;;;;;;;5064008;28;20205;-65
2022/05/02 10:04:12;;;;;;;9.40;8.50;;;;;;;;;;5048970;28;20207;-62
2022/05/02 10:06:47;;;;;;;9.40;8.13;;;;;;;;;;5069488;28;20878;-64
2022/05/02 10:09:33;;;;;;;8.93;8.05;;;;;;;;;;5071356;28;20203;-65
2022/05/02 10:12:03;;;;;;;8.00;7.30;;;;;;;;;;5087306;28;20213;-65
2022/05/02 10:14:50;;;;;;;8.32;7.53;;;;;;;;;;5072276;28;20208;-67
2022/05/02 10:17:31;;;;;;;8.35;7.45;;;;;;;;;;5056360;28;20613;-65
2022/05/02 10:20:21;;;;;;;10.27;9.20;;;;;;;;;;5054478;28;20270;-66
2022/05/02 10:22:51;;;;;;;11.55;7.57;;;;;;;;;;5074213;28;20280;-65
2022/05/02 10:25:51;;;;;;;7.35;6.72;;;;;;;;;;5077185;28;20205;-65
2022/05/02 10:28:25;;;;;;;9.20;8.30;;;;;;;;;;5014660;28;20219;-64
2022/05/02 10:31:06;;;;;;;8.07;7.35;;;;;;;;;;5057582;28;20236;-65
2022/05/02 10:33:36;;;;;;;7.68;6.97;;;;;;;;;;5055691;28;20204;-65
2022/05/02 10:36:04;;;;;;;7.35;6.65;;;;;;;;;;5055491;28;20240;-65
2022/05/02 10:38:32;;;;;;;7.65;6.68;;;;;;;;;;5057693;28;20201;-65
2022/05/02 10:41:21;;;;;;;7.72;7.00;;;;;;;;;;5066718;28;20217;-65
2022/05/02 10:43:55;;;;;;;8.23;6.80;;;;;;;;;;5053041;28;20201;-65
2022/05/02 10:46:22;;;;;;;7.68;6.97;;;;;;;;;;5049511;28;20239;-63
2022/05/02 10:49:12;;;;;;;6.63;6.03;;;;;;;;;;5051968;28;20235;-65
2022/05/02 10:51:40;;;;;;;6.90;6.25;;;;;;;;;;5060064;28;20240;-65
2022/05/02 10:54:08;;;;;;;7.88;6.43;;;;;;;;;;5054066;28;20217;-64
2022/05/02 10:56:36;;;;;;;7.63;6.93;;;;;;;;;;5056207;28;20274;-64
2022/05/02 10:59:05;;;;;;;8.40;7.38;;;;;;;;;;5063228;28;20424;-65
2022/05/02 11:01:45;;;;;;;8.85;7.95;;;;;;;;;;5053400;28;20212;-65
2022/05/02 11:04:12;;;;;;;8.85;7.95;;;;;;;;;;5065767;28;20716;-65
2022/05/02 11:06:59;;;;;;;8.35;7.55;;;;;;;;;;5054627;28;20259;-64
2022/05/02 11:09:33;;;;;;;7.53;6.90;;;;;;;;;;5062119;28;21191;-65
2022/05/02 11:12:03;;;;;;;9.85;8.85;;;;;;;;;;5062734;28;20193;-65
2022/05/02 11:14:36;;;;;;;8.48;7.68;;;;;;;;;;5060791;28;20254;-65
2022/05/02 11:17:03;;;;;;;6.32;5.72;;;;;;;;;;5054656;28;20710;-65
2022/05/02 11:22:32;;;;;;;8.15;7.35;;;;;;;;;;5070216;28;20216;-65
2022/05/02 11:25:15;;;;;;;7.80;7.10;;;;;;;;;;5050341;28;20212;-66
2022/05/02 11:28:03;;;;;;;7.40;6.80;;;;;;;;;;5051572;28;20255;-65
2022/05/02 11:30:37;;;;;;;7.18;6.57;;;;;;;;;;5047706;28;20217;-65
2022/05/02 11:33:04;;;;;;;7.03;6.43;;;;;;;;;;5057610;28;20205;-65
2022/05/02 11:35:33;;;;;;;7.65;6.50;;;;;;;;;;5065735;28;20228;-66
2022/05/02 11:38:01;;;;;;;7.35;6.75;;;;;;;;;;5068262;28;20229;-66
2022/05/02 11:40:35;;;;;;;6.88;6.28;;;;;;;;;;5078898;28;20815;-66
2022/05/02 11:43:08;;;;;;;6.43;5.82;;;;;;;;;;5057066;28;20728;-65
2022/05/02 11:45:36;;;;;;;6.18;5.35;;;;;;;;;;5066023;28;20689;-66
2022/05/02 11:48:04;;;;;;;5.50;5.00;;;;;;;;;;5059160;28;20222;-66
2022/05/02 11:50:40;;;;;;;5.35;4.95;;;;;;;;;;5064872;28;20229;-66
2022/05/02 11:53:09;;;;;;;5.60;5.10;;;;;;;;;;5058214;28;20205;-65
2022/05/02 11:55:40;;;;;;;5.65;5.20;;;;;;;;;;5062586;28;20228;-65
2022/05/02 11:58:26;;;;;;;5.00;4.60;;;;;;;;;;5060147;28;20252;-65
2022/05/02 12:01:06;;;;;;;6.82;6.13;;;;;;;;;;5060437;28;20269;-65
2022/05/02 12:03:48;;;;;;;5.55;5.10;;;;;;;;;;5075158;28;20212;-66
2022/05/02 12:06:17;;;;;;;6.80;6.20;;;;;;;;;;5059611;28;20232;-66
2022/05/02 12:08:47;;;;;;;6.28;5.68;;;;;;;;;;5079420;28;20402;-66
2022/05/02 12:11:15;;;;;;;6.65;5.90;;;;;;;;;;5065382;28;20601;-64
2022/05/02 12:13:47;;;;;;;6.97;6.25;;;;;;;;;;5058131;28;20220;-65
2022/05/02 12:16:20;;;;;;;7.32;6.63;;;;;;;;;;5077085;28;20273;-66
2022/05/02 12:18:49;;;;;;;6.50;5.90;;;;;;;;;;5063343;28;20282;-66
2022/05/02 12:21:20;;;;;;;8.15;7.35;;;;;;;;;;5064760;28;20228;-66
2022/05/02 12:23:47;;;;;;;13.63;9.05;;;;;;;;;;5057883;28;20205;-66
2022/05/02 12:26:19;;;;;;;8.02;7.10;;;;;;;;;;5058043;28;20274;-66
2022/05/02 12:28:53;;;;;;;8.07;7.20;;;;;;;;;;5059421;28;20708;-65
2022/05/02 12:31:27;;;;;;;6.88;6.20;;;;;;;;;;5078360;28;20623;-66
2022/05/02 12:34:00;;;;;;;9.70;7.70;;;;;;;;;;5078468;28;20471;-66
2022/05/02 12:36:49;;;;;;;7.30;6.45;;;;;;;;;;5066414;28;20793;-66
2022/05/02 12:39:28;;;;;;;7.55;6.90;;;;;;;;;;5056628;28;20210;-66
2022/05/02 12:42:18;;;;;;;8.10;7.30;;;;;;;;;;5057818;28;20482;-65
2022/05/02 12:45:04;;;;;;;8.20;7.40;;;;;;;;;;5061998;28;20207;-65
2022/05/02 12:47:34;;;;;;;9.98;8.98;;;;;;;;;;5068055;28;20229;-66
2022/05/02 12:50:05;;;;;;;9.85;8.95;;;;;;;;;;5055175;28;20208;-65
2022/05/02 12:52:34;;;;;;;8.77;7.97;;;;;;;;;;5061002;28;20205;-65
2022/05/02 12:55:05;;;;;;;9.48;7.45;;;;;;;;;;5065856;28;20193;-66
2022/05/02 13:00:32;;;;;;;8.73;7.93;;;;;;;;;;5078592;28;20205;-66
2022/05/02 13:03:05;;;;;;;7.65;6.95;;;;;;;;;;5063749;28;21502;-65
2022/05/02 13:05:34;;;;;;;8.10;7.28;;;;;;;;;;5074317;28;20205;-65
2022/05/02 13:08:09;;;;;;;7.55;6.85;;;;;;;;;;5061084;28;20216;-64
2022/05/02 13:10:37;;;;;;;7.72;7.03;;;;;;;;;;5055793;28;20220;-65
2022/05/02 13:13:04;;;;;;;7.20;6.55;;;;;;;;;;5060035;28;20719;-64
2022/05/02 13:15:34;;;;;;;8.52;6.65;;;;;;;;;;5057895;28;21280;-65
2022/05/02 13:18:03;;;;;;;8.50;7.70;;;;;;;;;;5069105;28;20221;-65
2022/05/02 13:20:58;;;;;;;8.23;7.40;;;;;;;;;;5068634;28;21647;-64
2022/05/02 13:23:36;;;;;;;8.35;7.53;;;;;;;;;;5061339;28;20200;-64
2022/05/02 13:26:07;;;;;;;8.68;7.88;;;;;;;;;;5056213;28;20308;-64
2022/05/02 13:28:55;;;;;;;7.95;7.22;;;;;;;;;;5079927;28;20213;-66
2022/05/02 13:31:27;;;;;;;7.88;7.10;;;;;;;;;;5075609;28;20274;-65
2022/05/02 13:33:59;;;;;;;8.30;7.10;;;;;;;;;;5067224;28;20205;-66
2022/05/02 13:36:26;;;;;;;11.20;9.75;;;;;;;;;;5057633;28;20225;-65
2022/05/02 13:39:03;;;;;;;5.63;5.13;;;;;;;;;;5065048;28;20261;-65
2022/05/02 13:41:39;;;;;;;5.70;5.20;;;;;;;;;;5070307;28;20185;-66
2022/05/02 13:44:13;;;;;;;6.60;5.65;;;;;;;;;;5094497;28;20200;-66
2022/05/02 13:46:42;;;;;;;5.60;5.10;;;;;;;;;;5064582;28;20240;-65
2022/05/02 13:49:31;;;;;;;4.68;4.28;;;;;;;;;;5081793;28;20562;-66
2022/05/02 13:52:18;;;;;;;5.15;4.57;;;;;;;;;;5066317;28;20224;-65
2022/05/02 13:54:52;;;;;;;5.35;4.85;;;;;;;;;;5065091;28;20261;-65
2022/05/02 13:57:32;;;;;;;5.72;5.22;;;;;;;;;;5066880;28;20315;-65
2022/05/02 14:01:12;;;;;;;5.90;5.40;;;;;;;;;;5071785;28;20196;-65
2022/05/02 14:03:40;;;;;;;6.47;5.88;;;;;;;;;;5079669;28;20212;-66
2022/05/02 14:05:48;;;;;;;6.05;4.85;;;;;;;;;;5072944;28;20208;-66
2022/05/02 14:08:18;;;;;;;5.30;4.80;;;;;;;;;;5072681;28;20274;-66
2022/05/02 14:10:59;;;;;;;5.45;4.95;;;;;;;;;;5069021;28;20228;-65
2022/05/02 14:13:28;;;;;;;6.53;5.70;;;;;;;;;;5071317;28;20216;-66
2022/05/02 14:16:05;;;;;;;6.07;5.47;;;;;;;;;;5070314;28;20217;-65
2022/05/02 14:18:51;;;;;;;5.70;5.20;;;;;;;;;;5061502;28;20197;-68
2022/05/02 14:21:20;;;;;;;5.90;5.40;;;;;;;;;;5059190;28;20295;-66
2022/05/02 14:23:48;;;;;;;6.18;5.57;;;;;;;;;;5065028;28;20321;-65
2022/05/02 14:26:17;;;;;;;5.45;4.95;;;;;;;;;;5068912;28;20233;-66
2022/05/02 14:28:48;;;;;;;5.15;4.65;;;;;;;;;;5061896;28;20205;-66
2022/05/02 14:31:16;;;;;;;4.82;4.43;;;;;;;;;;5055409;28;20229;-65
2022/05/02 14:33:44;;;;;;;6.85;4.72;;;;;;;;;;5058338;28;20665;-67
2022/05/02 14:36:14;;;;;;;10.35;5.90;;;;;;;;;;5052615;28;20758;-66
2022/05/02 14:38:42;;;;;;;5.03;4.63;;;;;;;;;;5069935;28;20321;-66
2022/05/02 14:41:10;;;;;;;4.72;4.10;;;;;;;;;;5075660;28;20226;-65
2022/05/02 14:43:37;;;;;;;4.50;4.10;;;;;;;;;;5052185;28;20291;-66
2022/05/02 14:46:06;;;;;;;5.82;4.72;;;;;;;;;;5055937;28;20247;-66
2022/05/02 14:48:35;;;;;;;5.22;4.72;;;;;;;;;;5051696;28;20210;-66
2022/05/02 14:51:10;;;;;;;4.70;4.30;;;;;;;;;;5052267;28;20293;-66
2022/05/02 14:53:41;;;;;;;9.73;8.73;;;;;;;;;;5056882;28;20208;-66
2022/05/02 14:56:11;;;;;;;4.82;4.43;;;;;;;;;;5058519;28;20746;-66
2022/05/02 14:58:39;;;;;;;5.10;4.70;;;;;;;;;;5049246;28;20724;-65
2022/05/02 15:01:13;;;;;;;4.80;4.40;;;;;;;;;;5062004;28;20625;-67
2022/05/02 15:03:48;;;;;;;5.18;4.78;;;;;;;;;;5058436;28;20213;-66
2022/05/02 15:06:26;;;;;;;5.70;4.82;;;;;;;;;;5052801;28;20234;-66
2022/05/02 15:09:12;;;;;;;4.78;4.30;;;;;;;;;;5046044;28;20224;-67
2022/05/02 15:11:39;;;;;;;4.72;4.32;;;;;;;;;;5037794;28;20267;-66
2022/05/02 15:14:10;;;;;;;4.30;4.00;;;;;;;;;;5044840;28;22421;-66
2022/05/02 15:16:56;;;;;;;5.15;4.65;;;;;;;;;;5040979;28;20431;-66
2022/05/02 15:19:43;;;;;;;4.45;4.00;;;;;;;;;;5047698;28;20210;-66
2022/05/02 15:22:37;;;;;;;4.20;3.80;;;;;;;;;;5045490;28;20209;-66
2022/05/02 15:25:12;;;;;;;5.20;4.70;;;;;;;;;;5057909;28;20246;-67
2022/05/02 15:36:48;;;;;;;5.97;5.47;;;;;;;;;;5070979;28;20226;-65